Strona główna
METAR-TAF:

METAR-TAF

Lotnisko :

Port lotniczy Kunovice

Uherské Hradiště, Czechy

Szerokość geograficzna: 49-01-46N, Długość geograficzna: 017-26-23E, wysokość: 177 m

Aktualna obserwacja pogody

Raport powstał 4 godziny i 11 minut temu, godzina 15:00 UTC
Wiatr 5 kt od zachodnio-południowy zachód
Temperatura 0°C
Wilgotność 80%
Ciśnienie 1024 hPa
Widzialność 10 km lub więcej
Zachmurzenie całkowite na wysokości 1900 ft

METAR: LKKU 171500Z 25005KT 9999 OVC019 M00/M03 Q1024

czas: 20:11 (19:11 UTC)


TAF: brakujący

Obserwacja i prognoza pogody dla ponad 4000 lotnisk (raport METAR i TAF).

Dostępne stacje oznaczono żółtymi i czerwonymi punktami na mapie.

Najedź kursorem aby zobaczyć nazwę stacji.

Kliknij aby zobaczyć obserwacje i prognozy pogody.

Aby zmienić mapę: kliknij na zielony przycisk z czarnym krzyżykiem, aby powiększyć; na zielony przycisk z myślnikiem, aby pomniejszyć; na zielone strzałki, aby przejść do map sąsiednich.


METAR-TAF: